首页
METAR-TAF:

METAR-TAF

机场 :

Marshfield Municipal Airport

Marshfield, 威斯康辛州, 美国

纬度: 44-38-17N, 经度: 090-11-15W, 海拔: 389米

当前天气观测

该预报发布于41分钟前的20:54 UTC
风速5节,风向南转西南
温度 -9°C
湿度 44%
气压 1027 hPa
能見度: 16.1公里
天空无云

METAR: KMFI 122054Z AUTO 20005KT 10SM CLR M09/M19 A3032 RMK AO2 SLP298 T10941189 58022

时间: 15:35 (21:35 UTC)


TAF: 丢失

超过4000个机场的气象观测和天气预报(METAR&TAF报告)。

可查询的气象台以黄色和红色小点在地图上表示。

将鼠标移到小点上方,可查看气象台名称。

然后点击查看天气观测和预报。

如需切换地图:点击带黑十字的绿色按钮放大地图;点击带横线的绿色按钮缩小地图;或者点击绿色箭头查看邻近地区的地图。


METAR-TAF: